sensor_id;sensor_type;location;lat;lon;timestamp;temperature;humidity
21439;DHT22;10880;50.302;18.736;2023-05-10T00:02:16;15.90;39.70
21439;DHT22;10880;50.302;18.736;2023-05-10T00:05:14;15.80;39.70
21439;DHT22;10880;50.302;18.736;2023-05-10T00:07:51;15.80;39.70
21439;DHT22;10880;50.302;18.736;2023-05-10T00:10:46;15.80;39.80
21439;DHT22;10880;50.302;18.736;2023-05-10T00:13:18;15.80;39.90
21439;DHT22;10880;50.302;18.736;2023-05-10T00:16:12;15.70;39.90
21439;DHT22;10880;50.302;18.736;2023-05-10T00:21:39;15.70;39.90
21439;DHT22;10880;50.302;18.736;2023-05-10T00:27:05;15.70;40.10
21439;DHT22;10880;50.302;18.736;2023-05-10T00:32:31;15.60;40.00
21439;DHT22;10880;50.302;18.736;2023-05-10T00:35:04;15.60;40.10
21439;DHT22;10880;50.302;18.736;2023-05-10T00:38:01;15.50;40.20
21439;DHT22;10880;50.302;18.736;2023-05-10T00:40:35;15.50;40.20
21439;DHT22;10880;50.302;18.736;2023-05-10T00:46:14;15.40;40.20
21439;DHT22;10880;50.302;18.736;2023-05-10T00:49:10;15.50;40.30
21439;DHT22;10880;50.302;18.736;2023-05-10T00:54:43;15.40;40.30
21439;DHT22;10880;50.302;18.736;2023-05-10T01:00:10;15.30;40.40
21439;DHT22;10880;50.302;18.736;2023-05-10T01:02:47;15.30;40.50
21439;DHT22;10880;50.302;18.736;2023-05-10T01:05:42;15.30;40.50
21439;DHT22;10880;50.302;18.736;2023-05-10T01:08:14;15.30;40.50
21439;DHT22;10880;50.302;18.736;2023-05-10T01:11:09;15.20;40.50
21439;DHT22;10880;50.302;18.736;2023-05-10T01:13:56;15.20;40.60
21439;DHT22;10880;50.302;18.736;2023-05-10T01:16:50;15.20;40.60
21439;DHT22;10880;50.302;18.736;2023-05-10T01:19:26;15.10;40.60
21439;DHT22;10880;50.302;18.736;2023-05-10T01:23:04;15.10;40.70
21439;DHT22;10880;50.302;18.736;2023-05-10T01:29:33;15.00;41.30
21439;DHT22;10880;50.302;18.736;2023-05-10T01:35:23;15.00;40.80
21439;DHT22;10880;50.302;18.736;2023-05-10T01:38:07;14.90;40.80
21439;DHT22;10880;50.302;18.736;2023-05-10T01:50:02;14.80;41.10
21439;DHT22;10880;50.302;18.736;2023-05-10T01:52:59;14.80;41.10
21439;DHT22;10880;50.302;18.736;2023-05-10T01:55:35;14.70;41.00
21439;DHT22;10880;50.302;18.736;2023-05-10T01:58:32;14.70;41.50
21439;DHT22;10880;50.302;18.736;2023-05-10T02:01:15;14.60;41.20
21439;DHT22;10880;50.302;18.736;2023-05-10T02:04:03;14.60;41.60
21439;DHT22;10880;50.302;18.736;2023-05-10T02:06:45;14.50;41.30
21439;DHT22;10880;50.302;18.736;2023-05-10T02:09:33;14.50;41.40
21439;DHT22;10880;50.302;18.736;2023-05-10T02:12:23;14.50;41.40
21439;DHT22;10880;50.302;18.736;2023-05-10T02:15:20;14.40;41.50
21439;DHT22;10880;50.302;18.736;2023-05-10T02:17:55;14.40;41.50
21439;DHT22;10880;50.302;18.736;2023-05-10T02:20:51;14.30;41.90
21439;DHT22;10880;50.302;18.736;2023-05-10T02:23:26;14.30;41.50
21439;DHT22;10880;50.302;18.736;2023-05-10T02:26:23;14.20;41.90
21439;DHT22;10880;50.302;18.736;2023-05-10T02:29:02;14.10;41.60
21439;DHT22;10880;50.302;18.736;2023-05-10T02:31:57;14.10;41.60
21439;DHT22;10880;50.302;18.736;2023-05-10T02:37:26;14.00;41.70
21439;DHT22;10880;50.302;18.736;2023-05-10T02:40:00;14.00;41.90
21439;DHT22;10880;50.302;18.736;2023-05-10T02:42:56;13.90;41.90
21439;DHT22;10880;50.302;18.736;2023-05-10T02:45:38;13.80;41.90
21439;DHT22;10880;50.302;18.736;2023-05-10T02:48:33;13.80;42.40
21439;DHT22;10880;50.302;18.736;2023-05-10T02:51:07;13.70;42.00
21439;DHT22;10880;50.302;18.736;2023-05-10T02:54:18;13.70;42.10
21439;DHT22;10880;50.302;18.736;2023-05-10T02:56:58;13.60;42.20
21439;DHT22;10880;50.302;18.736;2023-05-10T02:59:51;13.60;42.30
21439;DHT22;10880;50.302;18.736;2023-05-10T03:05:17;13.50;42.30
21439;DHT22;10880;50.302;18.736;2023-05-10T03:12:41;13.40;43.00
21439;DHT22;10880;50.302;18.736;2023-05-10T03:15:59;13.20;42.50
21439;DHT22;10880;50.302;18.736;2023-05-10T03:19:26;13.30;42.70
21439;DHT22;10880;50.302;18.736;2023-05-10T03:22:32;13.20;42.70
21439;DHT22;10880;50.302;18.736;2023-05-10T03:25:11;13.10;43.20
21439;DHT22;10880;50.302;18.736;2023-05-10T03:28:06;13.10;43.00
21439;DHT22;10880;50.302;18.736;2023-05-10T03:33:34;13.00;42.90
21439;DHT22;10880;50.302;18.736;2023-05-10T03:36:07;12.80;43.40
21439;DHT22;10880;50.302;18.736;2023-05-10T03:39:09;12.90;43.50
21439;DHT22;10880;50.302;18.736;2023-05-10T03:41:47;12.90;43.70
21439;DHT22;10880;50.302;18.736;2023-05-10T03:44:41;12.90;43.40
21439;DHT22;10880;50.302;18.736;2023-05-10T03:50:07;12.80;43.50
21439;DHT22;10880;50.302;18.736;2023-05-10T03:52:41;12.80;43.80
21439;DHT22;10880;50.302;18.736;2023-05-10T03:55:38;12.70;44.20
21439;DHT22;10880;50.302;18.736;2023-05-10T03:58:11;12.70;44.10
21439;DHT22;10880;50.302;18.736;2023-05-10T04:01:04;12.70;44.30
21439;DHT22;10880;50.302;18.736;2023-05-10T04:06:37;12.70;44.10
21439;DHT22;10880;50.302;18.736;2023-05-10T04:09:11;12.70;44.30
21439;DHT22;10880;50.302;18.736;2023-05-10T04:12:05;12.70;44.40
21439;DHT22;10880;50.302;18.736;2023-05-10T04:17:34;12.70;44.60
21439;DHT22;10880;50.302;18.736;2023-05-10T04:20:09;12.70;45.00
21439;DHT22;10880;50.302;18.736;2023-05-10T04:23:03;12.80;45.10
21439;DHT22;10880;50.302;18.736;2023-05-10T04:28:30;12.90;44.90
21439;DHT22;10880;50.302;18.736;2023-05-10T04:33:59;13.00;45.00
21439;DHT22;10880;50.302;18.736;2023-05-10T04:39:25;13.10;45.20
21439;DHT22;10880;50.302;18.736;2023-05-10T04:44:51;13.20;45.20
21439;DHT22;10880;50.302;18.736;2023-05-10T04:47:28;13.30;45.20
21439;DHT22;10880;50.302;18.736;2023-05-10T04:50:23;14.40;46.30
21439;DHT22;10880;50.302;18.736;2023-05-10T04:52:57;13.50;45.20
21439;DHT22;10880;50.302;18.736;2023-05-10T04:55:51;13.50;45.20
21439;DHT22;10880;50.302;18.736;2023-05-10T04:58:23;13.60;45.30
21439;DHT22;10880;50.302;18.736;2023-05-10T05:01:17;13.70;45.30
21439;DHT22;10880;50.302;18.736;2023-05-10T05:06:43;13.80;45.40
21439;DHT22;10880;50.302;18.736;2023-05-10T05:12:09;14.00;45.40
21439;DHT22;10880;50.302;18.736;2023-05-10T05:15:02;14.10;45.50
21439;DHT22;10880;50.302;18.736;2023-05-10T05:17:38;14.20;45.50
21439;DHT22;10880;50.302;18.736;2023-05-10T05:20:33;14.30;45.60
21439;DHT22;10880;50.302;18.736;2023-05-10T05:26:04;14.50;45.50
21439;DHT22;10880;50.302;18.736;2023-05-10T05:31:32;14.80;45.20
21439;DHT22;10880;50.302;18.736;2023-05-10T05:34:04;14.90;45.10
21439;DHT22;10880;50.302;18.736;2023-05-10T05:37:00;14.90;45.00
21439;DHT22;10880;50.302;18.736;2023-05-10T05:39:32;15.10;44.90
21439;DHT22;10880;50.302;18.736;2023-05-10T05:42:34;15.20;44.90
21439;DHT22;10880;50.302;18.736;2023-05-10T05:45:08;15.30;45.00
21439;DHT22;10880;50.302;18.736;2023-05-10T05:48:01;15.30;45.40
21439;DHT22;10880;50.302;18.736;2023-05-10T05:50:33;15.50;45.10
21439;DHT22;10880;50.302;18.736;2023-05-10T05:53:27;15.50;45.60
21439;DHT22;10880;50.302;18.736;2023-05-10T05:58:54;15.80;45.20
21439;DHT22;10880;50.302;18.736;2023-05-10T06:01:26;16.00;45.60
21439;DHT22;10880;50.302;18.736;2023-05-10T06:04:20;16.20;46.30
21439;DHT22;10880;50.302;18.736;2023-05-10T06:06:55;16.40;45.00
21439;DHT22;10880;50.302;18.736;2023-05-10T06:09:48;16.70;45.20
21439;DHT22;10880;50.302;18.736;2023-05-10T06:12:21;16.20;45.00
21439;DHT22;10880;50.302;18.736;2023-05-10T06:15:14;17.10;45.20
21439;DHT22;10880;50.302;18.736;2023-05-10T06:17:48;17.30;45.10
21439;DHT22;10880;50.302;18.736;2023-05-10T06:20:42;17.60;44.80
21439;DHT22;10880;50.302;18.736;2023-05-10T06:23:16;17.80;44.60
21439;DHT22;10880;50.302;18.736;2023-05-10T06:26:09;17.90;44.50
21439;DHT22;10880;50.302;18.736;2023-05-10T06:31:36;18.60;44.10
21439;DHT22;10880;50.302;18.736;2023-05-10T06:34:08;18.60;44.10
21439;DHT22;10880;50.302;18.736;2023-05-10T06:37:03;19.00;43.10
21439;DHT22;10880;50.302;18.736;2023-05-10T06:42:36;19.20;42.70
21439;DHT22;10880;50.302;18.736;2023-05-10T06:45:11;19.30;42.70
21439;DHT22;10880;50.302;18.736;2023-05-10T06:48:06;19.50;42.00
21439;DHT22;10880;50.302;18.736;2023-05-10T06:53:36;19.70;41.50
21439;DHT22;10880;50.302;18.736;2023-05-10T06:56:08;19.70;41.30
21439;DHT22;10880;50.302;18.736;2023-05-10T06:59:04;19.80;41.30
21439;DHT22;10880;50.302;18.736;2023-05-10T07:01:36;19.90;41.10
21439;DHT22;10880;50.302;18.736;2023-05-10T07:04:33;19.90;40.70
21439;DHT22;10880;50.302;18.736;2023-05-10T07:07:08;20.00;40.70
21439;DHT22;10880;50.302;18.736;2023-05-10T07:10:03;20.00;40.30
21439;DHT22;10880;50.302;18.736;2023-05-10T07:15:33;20.10;40.20
21439;DHT22;10880;50.302;18.736;2023-05-10T07:18:28;20.20;40.20
21439;DHT22;10880;50.302;18.736;2023-05-10T07:21:25;20.20;40.20
21439;DHT22;10880;50.302;18.736;2023-05-10T07:24:03;20.30;40.20
21439;DHT22;10880;50.302;18.736;2023-05-10T07:27:00;20.40;40.20
21439;DHT22;10880;50.302;18.736;2023-05-10T07:29:59;20.40;40.00
21439;DHT22;10880;50.302;18.736;2023-05-10T07:32:53;20.50;39.80
21439;DHT22;10880;50.302;18.736;2023-05-10T07:35:25;20.60;39.80
21439;DHT22;10880;50.302;18.736;2023-05-10T07:38:19;20.60;40.20
21439;DHT22;10880;50.302;18.736;2023-05-10T07:43:46;20.80;39.50
21439;DHT22;10880;50.302;18.736;2023-05-10T07:49:14;20.90;39.40
21439;DHT22;10880;50.302;18.736;2023-05-10T08:00:20;21.10;38.70
21439;DHT22;10880;50.302;18.736;2023-05-10T08:02:55;21.20;38.60
21439;DHT22;10880;50.302;18.736;2023-05-10T08:05:48;21.30;38.60
21439;DHT22;10880;50.302;18.736;2023-05-10T08:08:29;21.30;38.60
21439;DHT22;10880;50.302;18.736;2023-05-10T08:11:24;21.40;38.50
21439;DHT22;10880;50.302;18.736;2023-05-10T08:17:09;21.60;38.40
21439;DHT22;10880;50.302;18.736;2023-05-10T08:22:41;21.70;38.10
21439;DHT22;10880;50.302;18.736;2023-05-10T08:28:26;21.80;38.10
21439;DHT22;10880;50.302;18.736;2023-05-10T08:37:19;22.10;37.70
21439;DHT22;10880;50.302;18.736;2023-05-10T08:40:12;22.10;37.50
21439;DHT22;10880;50.302;18.736;2023-05-10T08:42:58;22.20;37.50
21439;DHT22;10880;50.302;18.736;2023-05-10T08:45:53;22.20;37.40
21439;DHT22;10880;50.302;18.736;2023-05-10T08:48:34;22.30;37.20
21439;DHT22;10880;50.302;18.736;2023-05-10T08:51:35;22.30;37.20
21439;DHT22;10880;50.302;18.736;2023-05-10T08:54:17;22.40;37.20
21439;DHT22;10880;50.302;18.736;2023-05-10T09:02:48;22.60;37.20
21439;DHT22;10880;50.302;18.736;2023-05-10T09:08:18;22.60;36.90
21439;DHT22;10880;50.302;18.736;2023-05-10T09:11:03;22.60;36.90
21439;DHT22;10880;50.302;18.736;2023-05-10T09:13:52;22.70;37.00
21439;DHT22;10880;50.302;18.736;2023-05-10T09:16:38;22.80;36.80
21439;DHT22;10880;50.302;18.736;2023-05-10T09:19:48;22.80;36.90
21439;DHT22;10880;50.302;18.736;2023-05-10T09:22:37;22.90;36.50
21439;DHT22;10880;50.302;18.736;2023-05-10T09:25:18;23.00;36.50
21439;DHT22;10880;50.302;18.736;2023-05-10T09:28:11;23.10;36.40
21439;DHT22;10880;50.302;18.736;2023-05-10T09:30:56;23.10;36.20
21439;DHT22;10880;50.302;18.736;2023-05-10T09:33:47;23.20;36.10
21439;DHT22;10880;50.302;18.736;2023-05-10T09:36:31;23.10;36.10
21439;DHT22;10880;50.302;18.736;2023-05-10T09:39:17;23.30;35.90
21439;DHT22;10880;50.302;18.736;2023-05-10T09:41:59;23.20;35.70
21439;DHT22;10880;50.302;18.736;2023-05-10T09:44:45;26.70;37.60
21439;DHT22;10880;50.302;18.736;2023-05-10T09:47:25;23.40;35.50
21439;DHT22;10880;50.302;18.736;2023-05-10T09:50:14;23.40;35.80
21439;DHT22;10880;50.302;18.736;2023-05-10T09:53:06;23.40;36.00
21439;DHT22;10880;50.302;18.736;2023-05-10T09:55:53;23.50;35.70
21439;DHT22;10880;50.302;18.736;2023-05-10T09:58:36;23.60;35.50
21439;DHT22;10880;50.302;18.736;2023-05-10T10:01:28;23.60;35.60
21439;DHT22;10880;50.302;18.736;2023-05-10T10:04:14;23.60;35.80
21439;DHT22;10880;50.302;18.736;2023-05-10T10:07:04;23.70;35.80
21439;DHT22;10880;50.302;18.736;2023-05-10T10:09:46;23.70;35.50
21439;DHT22;10880;50.302;18.736;2023-05-10T10:12:34;23.80;35.40
21439;DHT22;10880;50.302;18.736;2023-05-10T10:18:05;23.80;35.40
21439;DHT22;10880;50.302;18.736;2023-05-10T10:20:47;23.90;35.30
21439;DHT22;10880;50.302;18.736;2023-05-10T10:23:36;23.90;35.20
21439;DHT22;10880;50.302;18.736;2023-05-10T10:26:23;23.90;35.50
21439;DHT22;10880;50.302;18.736;2023-05-10T10:32:38;24.00;34.50
21439;DHT22;10880;50.302;18.736;2023-05-10T10:35:20;24.00;35.20
21439;DHT22;10880;50.302;18.736;2023-05-10T10:38:03;24.00;34.30
21439;DHT22;10880;50.302;18.736;2023-05-10T10:41:26;24.00;34.20
21439;DHT22;10880;50.302;18.736;2023-05-10T10:50:10;24.00;34.20
21439;DHT22;10880;50.302;18.736;2023-05-10T10:53:13;24.00;34.70
21439;DHT22;10880;50.302;18.736;2023-05-10T10:56:08;24.00;34.60
21439;DHT22;10880;50.302;18.736;2023-05-10T10:59:00;24.00;34.80
21439;DHT22;10880;50.302;18.736;2023-05-10T11:01:42;24.00;34.70
21439;DHT22;10880;50.302;18.736;2023-05-10T11:04:41;24.10;34.10
21439;DHT22;10880;50.302;18.736;2023-05-10T11:07:23;24.10;34.60
21439;DHT22;10880;50.302;18.736;2023-05-10T11:10:11;24.10;34.40
21439;DHT22;10880;50.302;18.736;2023-05-10T11:13:03;24.10;34.30
21439;DHT22;10880;50.302;18.736;2023-05-10T11:16:19;24.10;34.50
21439;DHT22;10880;50.302;18.736;2023-05-10T11:24:56;24.10;33.80
21439;DHT22;10880;50.302;18.736;2023-05-10T11:27:50;24.10;34.30
21439;DHT22;10880;50.302;18.736;2023-05-10T11:30:26;24.10;33.80
21439;DHT22;10880;50.302;18.736;2023-05-10T11:33:21;24.20;33.30
21439;DHT22;10880;50.302;18.736;2023-05-10T11:38:49;24.20;33.50
21439;DHT22;10880;50.302;18.736;2023-05-10T11:41:24;24.20;34.00
21439;DHT22;10880;50.302;18.736;2023-05-10T11:44:17;24.20;34.00
21439;DHT22;10880;50.302;18.736;2023-05-10T11:46:50;24.20;34.00
21439;DHT22;10880;50.302;18.736;2023-05-10T11:49:47;24.20;34.10
21439;DHT22;10880;50.302;18.736;2023-05-10T11:52:21;24.20;34.10
21439;DHT22;10880;50.302;18.736;2023-05-10T11:55:16;24.30;33.40
21439;DHT22;10880;50.302;18.736;2023-05-10T11:57:53;24.20;33.70
21439;DHT22;10880;50.302;18.736;2023-05-10T12:06:21;24.30;33.60
21439;DHT22;10880;50.302;18.736;2023-05-10T12:09:01;24.40;34.20
21439;DHT22;10880;50.302;18.736;2023-05-10T12:11:58;24.40;33.90
21439;DHT22;10880;50.302;18.736;2023-05-10T12:14:35;24.40;33.60
21439;DHT22;10880;50.302;18.736;2023-05-10T12:17:29;24.40;34.10
21439;DHT22;10880;50.302;18.736;2023-05-10T12:20:19;24.40;34.00
21439;DHT22;10880;50.302;18.736;2023-05-10T12:23:20;24.40;34.10
21439;DHT22;10880;50.302;18.736;2023-05-10T12:26:03;24.50;33.80
21439;DHT22;10880;50.302;18.736;2023-05-10T12:29:19;24.50;33.50
21439;DHT22;10880;50.302;18.736;2023-05-10T12:31:58;24.50;33.30
21439;DHT22;10880;50.302;18.736;2023-05-10T12:34:52;24.50;33.10
21439;DHT22;10880;50.302;18.736;2023-05-10T12:37:28;24.50;33.10
21439;DHT22;10880;50.302;18.736;2023-05-10T12:40:26;24.50;33.60
21439;DHT22;10880;50.302;18.736;2023-05-10T12:43:00;24.60;32.90
21439;DHT22;10880;50.302;18.736;2023-05-10T12:45:54;24.50;33.40
21439;DHT22;10880;50.302;18.736;2023-05-10T12:48:29;24.50;33.10
21439;DHT22;10880;50.302;18.736;2023-05-10T12:51:22;24.50;33.10
21439;DHT22;10880;50.302;18.736;2023-05-10T12:53:56;24.60;33.10
21439;DHT22;10880;50.302;18.736;2023-05-10T12:56:49;24.60;33.00
21439;DHT22;10880;50.302;18.736;2023-05-10T12:59:24;24.50;33.00
21439;DHT22;10880;50.302;18.736;2023-05-10T13:02:17;24.50;33.10
21439;DHT22;10880;50.302;18.736;2023-05-10T13:04:56;24.50;33.20
21439;DHT22;10880;50.302;18.736;2023-05-10T13:07:49;24.50;33.20
21439;DHT22;10880;50.302;18.736;2023-05-10T13:10:22;24.50;33.20
21439;DHT22;10880;50.302;18.736;2023-05-10T13:13:15;24.60;33.30
21439;DHT22;10880;50.302;18.736;2023-05-10T13:15:49;24.60;33.00
21439;DHT22;10880;50.302;18.736;2023-05-10T13:18:42;24.60;33.10
21439;DHT22;10880;50.302;18.736;2023-05-10T13:21:16;24.60;32.50
21439;DHT22;10880;50.302;18.736;2023-05-10T13:24:12;24.60;32.50
21439;DHT22;10880;50.302;18.736;2023-05-10T13:26:50;24.50;32.90
21439;DHT22;10880;50.302;18.736;2023-05-10T13:29:43;24.60;33.00
21439;DHT22;10880;50.302;18.736;2023-05-10T13:32:20;24.60;32.70
21439;DHT22;10880;50.302;18.736;2023-05-10T13:35:13;24.60;32.80
21439;DHT22;10880;50.302;18.736;2023-05-10T13:37:47;24.60;32.00
21439;DHT22;10880;50.302;18.736;2023-05-10T13:40:44;24.60;32.70
21439;DHT22;10880;50.302;18.736;2023-05-10T13:43:20;24.60;31.80
21439;DHT22;10880;50.302;18.736;2023-05-10T13:46:17;24.50;32.30
21439;DHT22;10880;50.302;18.736;2023-05-10T13:48:53;24.50;32.60
21439;DHT22;10880;50.302;18.736;2023-05-10T13:51:53;24.50;32.70
21439;DHT22;10880;50.302;18.736;2023-05-10T13:54:29;24.60;32.70
21439;DHT22;10880;50.302;18.736;2023-05-10T13:57:22;24.50;32.60
21439;DHT22;10880;50.302;18.736;2023-05-10T13:59:55;24.60;32.70
21439;DHT22;10880;50.302;18.736;2023-05-10T14:02:54;24.60;32.70
21439;DHT22;10880;50.302;18.736;2023-05-10T14:05:28;24.60;32.70
21439;DHT22;10880;50.302;18.736;2023-05-10T14:08:22;24.60;32.00
21439;DHT22;10880;50.302;18.736;2023-05-10T14:10:55;24.60;32.60
21439;DHT22;10880;50.302;18.736;2023-05-10T14:13:49;24.60;32.50
21439;DHT22;10880;50.302;18.736;2023-05-10T14:16:43;24.60;32.40
21439;DHT22;10880;50.302;18.736;2023-05-10T14:19:20;24.50;31.80
21439;DHT22;10880;50.302;18.736;2023-05-10T14:22:13;24.50;32.30
21439;DHT22;10880;50.302;18.736;2023-05-10T14:24:47;24.50;32.10
21439;DHT22;10880;50.302;18.736;2023-05-10T14:27:44;24.50;32.30
21439;DHT22;10880;50.302;18.736;2023-05-10T14:30:27;24.50;32.40
21439;DHT22;10880;50.302;18.736;2023-05-10T14:33:27;24.50;32.50
21439;DHT22;10880;50.302;18.736;2023-05-10T14:36:00;24.50;31.60
21439;DHT22;10880;50.302;18.736;2023-05-10T14:38:53;24.50;32.10
21439;DHT22;10880;50.302;18.736;2023-05-10T14:41:26;24.50;31.90
21439;DHT22;10880;50.302;18.736;2023-05-10T14:44:20;24.40;32.00
21439;DHT22;10880;50.302;18.736;2023-05-10T14:46:54;24.40;32.00
21439;DHT22;10880;50.302;18.736;2023-05-10T14:49:47;24.40;32.10
21439;DHT22;10880;50.302;18.736;2023-05-10T14:52:22;24.40;31.60
21439;DHT22;10880;50.302;18.736;2023-05-10T14:55:15;24.40;32.00
21439;DHT22;10880;50.302;18.736;2023-05-10T14:57:49;24.40;31.90
21439;DHT22;10880;50.302;18.736;2023-05-10T15:00:46;24.40;31.40
21439;DHT22;10880;50.302;18.736;2023-05-10T15:03:19;24.40;31.90
21439;DHT22;10880;50.302;18.736;2023-05-10T15:06:14;24.40;31.80
21439;DHT22;10880;50.302;18.736;2023-05-10T15:08:55;24.40;31.80
21439;DHT22;10880;50.302;18.736;2023-05-10T15:11:48;24.40;31.70
21439;DHT22;10880;50.302;18.736;2023-05-10T15:14:22;24.40;31.80
21439;DHT22;10880;50.302;18.736;2023-05-10T15:17:20;24.30;31.90
21439;DHT22;10880;50.302;18.736;2023-05-10T15:19:53;24.30;31.70
21439;DHT22;10880;50.302;18.736;2023-05-10T15:22:47;24.20;31.80
21439;DHT22;10880;50.302;18.736;2023-05-10T15:25:28;24.20;31.90
21439;DHT22;10880;50.302;18.736;2023-05-10T15:28:25;24.20;32.00
21439;DHT22;10880;50.302;18.736;2023-05-10T15:30:58;24.20;32.10
21439;DHT22;10880;50.302;18.736;2023-05-10T15:33:57;24.20;31.60
21439;DHT22;10880;50.302;18.736;2023-05-10T15:36:32;24.20;32.10
21439;DHT22;10880;50.302;18.736;2023-05-10T15:39:26;24.20;32.20
21439;DHT22;10880;50.302;18.736;2023-05-10T15:42:00;24.20;32.10
21439;DHT22;10880;50.302;18.736;2023-05-10T15:44:56;24.20;32.10
21439;DHT22;10880;50.302;18.736;2023-05-10T15:47:31;24.20;32.00
21439;DHT22;10880;50.302;18.736;2023-05-10T15:50:25;24.10;32.00
21439;DHT22;10880;50.302;18.736;2023-05-10T15:52:58;24.20;31.90
21439;DHT22;10880;50.302;18.736;2023-05-10T15:55:51;24.10;32.00
21439;DHT22;10880;50.302;18.736;2023-05-10T15:58:24;24.10;31.90
21439;DHT22;10880;50.302;18.736;2023-05-10T16:01:20;24.10;31.90
21439;DHT22;10880;50.302;18.736;2023-05-10T16:06:46;24.00;31.60
21439;DHT22;10880;50.302;18.736;2023-05-10T16:09:21;24.00;32.00
21439;DHT22;10880;50.302;18.736;2023-05-10T16:12:14;24.00;32.10
21439;DHT22;10880;50.302;18.736;2023-05-10T16:14:48;23.90;32.00
21439;DHT22;10880;50.302;18.736;2023-05-10T16:17:41;23.90;32.10
21439;DHT22;10880;50.302;18.736;2023-05-10T16:20:15;23.90;32.10
21439;DHT22;10880;50.302;18.736;2023-05-10T16:23:10;23.80;31.80
21439;DHT22;10880;50.302;18.736;2023-05-10T16:25:44;23.80;32.30
21439;DHT22;10880;50.302;18.736;2023-05-10T16:28:37;23.80;32.40
21439;DHT22;10880;50.302;18.736;2023-05-10T16:31:12;23.80;32.40
21439;DHT22;10880;50.302;18.736;2023-05-10T16:34:05;23.70;32.40
21439;DHT22;10880;50.302;18.736;2023-05-10T16:36:39;23.70;32.30
21439;DHT22;10880;50.302;18.736;2023-05-10T16:39:32;23.70;33.10
21439;DHT22;10880;50.302;18.736;2023-05-10T16:42:05;23.60;32.30
21439;DHT22;10880;50.302;18.736;2023-05-10T16:44:58;23.60;32.40
21439;DHT22;10880;50.302;18.736;2023-05-10T16:47:41;23.60;32.40
21439;DHT22;10880;50.302;18.736;2023-05-10T16:50:36;23.60;32.50
21439;DHT22;10880;50.302;18.736;2023-05-10T16:53:09;23.60;32.30
21439;DHT22;10880;50.302;18.736;2023-05-10T16:56:06;23.50;32.30
21439;DHT22;10880;50.302;18.736;2023-05-10T16:58:39;23.50;32.20
21439;DHT22;10880;50.302;18.736;2023-05-10T17:01:34;23.50;32.40
21439;DHT22;10880;50.302;18.736;2023-05-10T17:04:12;23.40;32.30
21439;DHT22;10880;50.302;18.736;2023-05-10T17:07:09;23.40;32.50
21439;DHT22;10880;50.302;18.736;2023-05-10T17:09:45;23.40;32.40
21439;DHT22;10880;50.302;18.736;2023-05-10T17:12:39;23.40;32.60
21439;DHT22;10880;50.302;18.736;2023-05-10T17:15:22;23.30;32.50
21439;DHT22;10880;50.302;18.736;2023-05-10T17:18:15;23.30;32.50
21439;DHT22;10880;50.302;18.736;2023-05-10T17:20:54;23.20;32.50
21439;DHT22;10880;50.302;18.736;2023-05-10T17:23:47;23.30;32.50
21439;DHT22;10880;50.302;18.736;2023-05-10T17:26:20;23.20;32.30
21439;DHT22;10880;50.302;18.736;2023-05-10T17:29:14;23.20;32.50
21439;DHT22;10880;50.302;18.736;2023-05-10T17:31:48;23.20;32.20
21439;DHT22;10880;50.302;18.736;2023-05-10T17:34:44;23.10;32.20
21439;DHT22;10880;50.302;18.736;2023-05-10T17:40:14;23.10;32.30
21439;DHT22;10880;50.302;18.736;2023-05-10T17:42:50;23.10;32.80
21439;DHT22;10880;50.302;18.736;2023-05-10T17:45:49;23.00;32.50
21439;DHT22;10880;50.302;18.736;2023-05-10T17:48:22;23.00;32.90
21439;DHT22;10880;50.302;18.736;2023-05-10T17:51:15;23.00;33.00
21439;DHT22;10880;50.302;18.736;2023-05-10T17:53:51;23.00;33.00
21439;DHT22;10880;50.302;18.736;2023-05-10T17:56:47;23.00;33.20
21439;DHT22;10880;50.302;18.736;2023-05-10T17:59:21;23.00;33.30
21439;DHT22;10880;50.302;18.736;2023-05-10T18:02:15;23.00;32.80
21439;DHT22;10880;50.302;18.736;2023-05-10T18:04:50;22.90;32.80
21439;DHT22;10880;50.302;18.736;2023-05-10T18:07:43;22.90;33.20
21439;DHT22;10880;50.302;18.736;2023-05-10T18:10:32;22.80;32.80
21439;DHT22;10880;50.302;18.736;2023-05-10T18:13:31;22.80;33.20
21439;DHT22;10880;50.302;18.736;2023-05-10T18:16:26;22.80;33.30
21439;DHT22;10880;50.302;18.736;2023-05-10T18:19:20;25.30;34.00
21439;DHT22;10880;50.302;18.736;2023-05-10T18:21:54;22.70;32.70
21439;DHT22;10880;50.302;18.736;2023-05-10T18:24:47;22.70;33.20
21439;DHT22;10880;50.302;18.736;2023-05-10T18:27:23;22.70;33.20
21439;DHT22;10880;50.302;18.736;2023-05-10T18:30:19;22.60;33.20
21439;DHT22;10880;50.302;18.736;2023-05-10T18:32:54;22.60;33.20
21439;DHT22;10880;50.302;18.736;2023-05-10T18:35:50;22.50;32.50
21439;DHT22;10880;50.302;18.736;2023-05-10T18:41:21;22.30;32.70
21439;DHT22;10880;50.302;18.736;2023-05-10T18:43:59;22.30;32.70
21439;DHT22;10880;50.302;18.736;2023-05-10T18:46:56;22.30;33.20
21439;DHT22;10880;50.302;18.736;2023-05-10T18:52:24;22.30;32.70
21439;DHT22;10880;50.302;18.736;2023-05-10T18:54:58;22.20;33.20
21439;DHT22;10880;50.302;18.736;2023-05-10T18:57:51;22.20;33.30
21439;DHT22;10880;50.302;18.736;2023-05-10T19:00:25;22.10;32.90
21439;DHT22;10880;50.302;18.736;2023-05-10T19:03:21;20.60;32.70
21439;DHT22;10880;50.302;18.736;2023-05-10T19:05:54;22.10;33.40
21439;DHT22;10880;50.302;18.736;2023-05-10T19:08:47;22.00;33.00
21439;DHT22;10880;50.302;18.736;2023-05-10T19:11:22;22.00;33.50
21439;DHT22;10880;50.302;18.736;2023-05-10T19:14:17;21.90;33.40
21439;DHT22;10880;50.302;18.736;2023-05-10T19:17:10;21.90;33.00
21439;DHT22;10880;50.302;18.736;2023-05-10T19:19:43;21.90;33.50
21439;DHT22;10880;50.302;18.736;2023-05-10T19:22:36;21.90;33.50
21439;DHT22;10880;50.302;18.736;2023-05-10T19:25:11;21.80;33.00
21439;DHT22;10880;50.302;18.736;2023-05-10T19:28:04;21.80;33.00
21439;DHT22;10880;50.302;18.736;2023-05-10T19:30:40;21.80;33.60
21439;DHT22;10880;50.302;18.736;2023-05-10T19:33:34;21.70;33.60
21439;DHT22;10880;50.302;18.736;2023-05-10T19:36:08;21.70;33.50
21439;DHT22;10880;50.302;18.736;2023-05-10T19:39:01;21.60;33.50
21439;DHT22;10880;50.302;18.736;2023-05-10T19:41:34;21.60;33.50
21439;DHT22;10880;50.302;18.736;2023-05-10T19:44:27;21.60;33.60
21439;DHT22;10880;50.302;18.736;2023-05-10T19:47:01;21.50;33.10
21439;DHT22;10880;50.302;18.736;2023-05-10T19:49:54;21.50;33.60
21439;DHT22;10880;50.302;18.736;2023-05-10T19:52:27;21.50;33.50
21439;DHT22;10880;50.302;18.736;2023-05-10T19:55:28;21.50;33.60
21439;DHT22;10880;50.302;18.736;2023-05-10T19:58:02;21.40;33.60